Aransas Pass — WDF5061 — position and weather

sailwx.info

Track history (hours):
 
Tides and Currents Weather Stations Pressure Air Temp Water Temp Dewpoint Dewpoint Depression Visibility Wind Speed Wind Dir Waves Ship Positions

Aransas Pass

Owner: Higman Barge Lines, Inc., Orange, TX. More information available from US FCC via Universal Licensing System and Coast Guard Vessel Documentation Center.

Last reported at 2015-Feb-20 18:04 UTC. Time now 2015-Mar-01 20:55 UTC.
Position N 29°55' W 089°58'.
Warning: this ship's position is 9 days out of date.

Length 26 m; draft 3 m.

Type: Towing. MMSI: 367458930.

Date/timePositionNaut miles runAvg speedWind from/ knotsBaromVisibWave heightAir tempDewpointWater temp
2015-Feb-20 18:04N 29°55' W 089°58'53 4.5
2015-Feb-20 06:16N 29°32' W 090°53'5 6.6
2015-Feb-20 05:33N 29°34' W 090°57'6 5.8
2015-Feb-20 04:33N 29°37' W 091°03'5 4.7
2015-Feb-20 03:33N 29°40' W 091°08'5 4.6
2015-Feb-20 02:33N 29°41' W 091°13'6 5.9
2015-Feb-20 01:33N 29°38' W 091°19'12 5.7
2015-Feb-19 23:30N 29°42' W 091°32'175 3.9
2015-Feb-18 02:33N 29°30' W 094°53'7 7.5
2015-Feb-18 01:33N 29°37' W 094°57'7 7.0
2015-Feb-18 00:33N 29°43' W 095°01'5 4.7
2015-Feb-17 23:33N 29°46' W 095°05'1 1.4
2015-Feb-17 22:33N 29°46' W 095°06'0 0.0
2015-Feb-17 21:33N 29°46' W 095°06'4 4.2
2015-Feb-17 20:33N 29°45' W 095°11'4 4.1
2015-Feb-17 19:33N 29°43' W 095°15'0 0.1
2015-Feb-17 17:33N 29°43' W 095°15'0 0.0
2015-Feb-17 16:33N 29°43' W 095°15'0 0.0
2015-Feb-17 15:33N 29°43' W 095°15'0 0.0
2015-Feb-17 14:33N 29°43' W 095°15'0 0.0
2015-Feb-17 13:33N 29°43' W 095°15'5 4.6
2015-Feb-17 12:33N 29°45' W 095°10'5 5.2
2015-Feb-17 11:33N 29°47' W 095°05'0 0.0
2015-Feb-17 10:33N 29°47' W 095°05'0 0.0
2015-Feb-17 09:33N 29°47' W 095°05'0 0.0
2015-Feb-17 08:33N 29°47' W 095°05'0 0.0
2015-Feb-17 07:34N 29°47' W 095°05'0 0.0
2015-Feb-17 06:33N 29°47' W 095°05'0 0.0
2015-Feb-17 05:33N 29°47' W 095°05'0 0.0
2015-Feb-17 04:33N 29°47' W 095°05'0 0.0
2015-Feb-17 03:33N 29°47' W 095°05'0 0.0
2015-Feb-17 02:33N 29°47' W 095°05'0 0.0
2015-Feb-17 01:33N 29°47' W 095°05'2 2.0
2015-Feb-17 00:33N 29°45' W 095°06'5 5.4
2015-Feb-16 23:34N 29°44' W 095°12'0 0.3
2015-Feb-16 22:33N 29°45' W 095°12'0 0.0
2015-Feb-16 21:33N 29°45' W 095°12'0 0.0
2015-Feb-16 20:33N 29°45' W 095°12'0 0.0
2015-Feb-16 19:33N 29°45' W 095°12'0 0.0
2015-Feb-16 18:33N 29°45' W 095°12'0 0.0
2015-Feb-16 17:33N 29°45' W 095°12'0 0.1
2015-Feb-16 16:33N 29°45' W 095°12'0 0.1
2015-Feb-16 15:33N 29°45' W 095°12'0 0.0
2015-Feb-16 14:33N 29°45' W 095°12'0 0.0
2015-Feb-16 13:33N 29°45' W 095°12'0 0.0
2015-Feb-16 12:33N 29°45' W 095°12'0 0.0
2015-Feb-16 11:33N 29°45' W 095°12'0 0.0
2015-Feb-16 10:33N 29°45' W 095°12'0 0.0
2015-Feb-16 09:31N 29°45' W 095°12'0 0.0
2015-Feb-16 08:33N 29°45' W 095°12'0 0.0
2015-Feb-16 07:33N 29°45' W 095°12'0 0.0
2015-Feb-16 06:33N 29°45' W 095°12'0 0.0
2015-Feb-16 05:33N 29°45' W 095°12'0 0.0
2015-Feb-16 04:33N 29°45' W 095°12'0 0.0
2015-Feb-16 03:33N 29°45' W 095°12'0 0.0
2015-Feb-16 02:33N 29°45' W 095°12'0 0.0
2015-Feb-16 01:33N 29°45' W 095°12'0 0.0
2015-Feb-16 00:33N 29°45' W 095°12'0 0.0
2015-Feb-15 23:33N 29°45' W 095°12'2 2.1
2015-Feb-15 22:33N 29°44' W 095°09'4 2.0
2015-Feb-15 20:33N 29°46' W 095°05'0 0.0
2015-Feb-15 19:33N 29°46' W 095°05'2 1.6
2015-Feb-15 18:30N 29°45' W 095°07'1 0.6
2015-Feb-15 16:33N 29°45' W 095°06'1 0.5
2015-Feb-15 15:33N 29°46' W 095°05'0 0.0
2015-Feb-15 14:30N 29°46' W 095°05'0 0.0
2015-Feb-15 13:33N 29°46' W 095°05'0 0.0
2015-Feb-15 12:32N 29°46' W 095°05'0 0.0
2015-Feb-15 11:33N 29°46' W 095°05'0 0.0
2015-Feb-15 10:33N 29°46' W 095°05'0 0.0
2015-Feb-15 09:33N 29°46' W 095°05'0 0.0
2015-Feb-15 08:32N 29°46' W 095°05'0 0.0
2015-Feb-15 07:33N 29°46' W 095°05'0 0.0
2015-Feb-15 06:33N 29°46' W 095°05'0 0.0
2015-Feb-15 05:30N 29°46' W 095°05'0 0.0
2015-Feb-15 04:33N 29°46' W 095°05'0 0.0
2015-Feb-15 03:33N 29°46' W 095°05'0 0.0
2015-Feb-15 02:33N 29°46' W 095°05'0 0.0
2015-Feb-15 01:33N 29°46' W 095°05'0 0.0
2015-Feb-15 00:33N 29°46' W 095°05'0 0.0
2015-Feb-14 23:33N 29°46' W 095°05'0 0.0
2015-Feb-14 22:33N 29°46' W 095°05'0 0.0
2015-Feb-14 21:33N 29°46' W 095°05'0 0.0
2015-Feb-14 20:33N 29°46' W 095°05'0 0.0
2015-Feb-14 19:33N 29°46' W 095°05'0 0.0
2015-Feb-14 18:33N 29°46' W 095°05'0 0.0
2015-Feb-14 17:33N 29°46' W 095°05'0 0.0
2015-Feb-14 16:33N 29°46' W 095°05'0 0.0
2015-Feb-14 15:33N 29°46' W 095°05'0 0.0
2015-Feb-14 14:33N 29°46' W 095°05'0 0.0
2015-Feb-14 13:32N 29°46' W 095°05'0 0.0
2015-Feb-14 12:31N 29°46' W 095°05'0 0.0
2015-Feb-14 11:30N 29°46' W 095°05'0 0.0
2015-Feb-14 10:31N 29°46' W 095°05'0 0.0
2015-Feb-14 09:33N 29°46' W 095°05'0 0.0
2015-Feb-14 08:33N 29°46' W 095°05'0 0.0
2015-Feb-14 07:33N 29°46' W 095°05'0 0.0
2015-Feb-14 06:33N 29°46' W 095°05'0 0.0
2015-Feb-14 05:33N 29°46' W 095°05'0 0.0
2015-Feb-14 04:34N 29°46' W 095°05'0 0.0
2015-Feb-14 03:33N 29°46' W 095°05'0 0.0
2015-Feb-14 02:33N 29°46' W 095°05'0 0.0
2015-Feb-14 01:33N 29°46' W 095°05'0 0.0
2015-Feb-14 00:33N 29°46' W 095°05'0 0.0
2015-Feb-13 23:33N 29°46' W 095°05'0 0.0
2015-Feb-13 22:33N 29°46' W 095°05'0 0.0
2015-Feb-13 21:33N 29°46' W 095°05'0 0.0
2015-Feb-13 20:33N 29°46' W 095°05'0 0.0
2015-Feb-13 19:33N 29°46' W 095°05'0 0.0
2015-Feb-13 18:33N 29°46' W 095°05'0 0.2
2015-Feb-13 17:33N 29°46' W 095°05'3 3.0
2015-Feb-13 16:33N 29°44' W 095°08'3 0.3
2015-Feb-13 04:14N 29°46' W 095°05'0 0.0
2015-Feb-13 03:34N 29°46' W 095°05'1 0.9
2015-Feb-13 02:33N 29°45' W 095°06'1 0.7
2015-Feb-13 01:33N 29°46' W 095°06'0 0.0
2015-Feb-13 00:33N 29°46' W 095°06'0 0.1
2015-Feb-12 21:18N 29°46' W 095°07'0 0.0
2015-Feb-12 20:33N 29°46' W 095°07'0 0.0
2015-Feb-12 19:33N 29°46' W 095°07'0 0.0
2015-Feb-12 18:34N 29°46' W 095°07'0 0.0
2015-Feb-12 17:34N 29°46' W 095°07'2 1.9
2015-Feb-12 16:33N 29°44' W 095°08'1 1.0
2015-Feb-12 15:33N 29°45' W 095°06'0 0.0
2015-Feb-12 14:33N 29°45' W 095°07'2 1.7
2015-Feb-12 13:34N 29°46' W 095°05'0 0.0
2015-Feb-12 12:34N 29°46' W 095°05'0 0.0
2015-Feb-12 11:33N 29°46' W 095°05'0 0.0
2015-Feb-12 10:34N 29°46' W 095°05'0 0.0
2015-Feb-12 09:34N 29°46' W 095°05'0 0.0
2015-Feb-12 08:34N 29°46' W 095°05'0 0.0
2015-Feb-12 07:33N 29°46' W 095°05'0 0.0
2015-Feb-12 06:33N 29°46' W 095°05'0 0.0
2015-Feb-12 05:33N 29°46' W 095°05'0 0.0
2015-Feb-12 04:34N 29°46' W 095°05'0 0.0
2015-Feb-12 03:33N 29°46' W 095°05'0 0.0
2015-Feb-12 02:34N 29°46' W 095°05'0 0.0
2015-Feb-12 01:33N 29°46' W 095°05'0 0.0
2015-Feb-12 00:33N 29°46' W 095°05'0 0.0
2015-Feb-11 23:34N 29°46' W 095°05'0 0.0
2015-Feb-11 22:33N 29°46' W 095°05'0 0.0
2015-Feb-11 21:34N 29°46' W 095°05'0 0.0
2015-Feb-11 20:33N 29°46' W 095°05'0 0.0
2015-Feb-11 19:34N 29°46' W 095°05'0 0.0
2015-Feb-11 18:34N 29°46' W 095°05'0 0.0
2015-Feb-11 17:33N 29°46' W 095°05'0 0.0
2015-Feb-11 16:34N 29°46' W 095°05'1 0.9
2015-Feb-11 15:32N 29°47' W 095°05'0 0.1
2015-Feb-11 14:33N 29°47' W 095°05'0 0.0
2015-Feb-11 13:33N 29°47' W 095°05'0 0.0
2015-Feb-11 12:30N 29°47' W 095°05'0 0.0
2015-Feb-11 11:34N 29°47' W 095°05'0 0.0
2015-Feb-11 10:28N 29°47' W 095°05'0 0.0
2015-Feb-11 09:07N 29°47' W 095°05'0 0.0
2015-Feb-11 08:32N 29°47' W 095°05'0 0.0
2015-Feb-11 07:06N 29°47' W 095°05'0 0.0
2015-Feb-11 06:22N 29°47' W 095°05'0 0.0
2015-Feb-11 05:33N 29°47' W 095°05'0 0.0
2015-Feb-11 04:32N 29°47' W 095°05'0 0.0
2015-Feb-11 02:32N 29°47' W 095°05'0 0.0
2015-Feb-11 01:33N 29°47' W 095°05'0 0.0
2015-Feb-11 00:33N 29°47' W 095°05'0 0.0
2015-Feb-10 23:34N 29°47' W 095°05'0 0.0
2015-Feb-10 22:33N 29°47' W 095°05'0 0.1
2015-Feb-10 21:33N 29°47' W 095°05'0 0.4
2015-Feb-10 20:34N 29°46' W 095°05'2 1.8
2015-Feb-10 19:33N 29°46' W 095°07'0 0.0
2015-Feb-10 18:34N 29°46' W 095°07'  
Track history (hours):
 
Tides and Currents Weather Stations Pressure Air Temp Water Temp Dewpoint Dewpoint Depression Visibility Wind Speed Wind Dir Waves Ship Positions

Aransas Pass

Owner: Higman Barge Lines, Inc., Orange, TX. More information available from US FCC via Universal Licensing System and Coast Guard Vessel Documentation Center.

Last reported at 2015-Feb-20 18:04 UTC. Time now 2015-Mar-01 20:55 UTC.
Position N 29°55' W 089°58'.
Warning: this ship's position is 9 days out of date.

Length 26 m; draft 3 m.

Type: Towing. MMSI: 367458930.

Date/timePositionNaut miles runAvg speedWind from/ knotsBaromVisibWave heightAir tempDewpointWater temp
2015-Feb-20 18:04N 29°55' W 089°58'53 4.5
2015-Feb-20 06:16N 29°32' W 090°53'5 6.6
2015-Feb-20 05:33N 29°34' W 090°57'6 5.8
2015-Feb-20 04:33N 29°37' W 091°03'5 4.7
2015-Feb-20 03:33N 29°40' W 091°08'5 4.6
2015-Feb-20 02:33N 29°41' W 091°13'6 5.9
2015-Feb-20 01:33N 29°38' W 091°19'12 5.7
2015-Feb-19 23:30N 29°42' W 091°32'175 3.9
2015-Feb-18 02:33N 29°30' W 094°53'7 7.5
2015-Feb-18 01:33N 29°37' W 094°57'7 7.0
2015-Feb-18 00:33N 29°43' W 095°01'5 4.7
2015-Feb-17 23:33N 29°46' W 095°05'1 1.4
2015-Feb-17 22:33N 29°46' W 095°06'0 0.0
2015-Feb-17 21:33N 29°46' W 095°06'4 4.2
2015-Feb-17 20:33N 29°45' W 095°11'4 4.1
2015-Feb-17 19:33N 29°43' W 095°15'0 0.1
2015-Feb-17 17:33N 29°43' W 095°15'0 0.0
2015-Feb-17 16:33N 29°43' W 095°15'0 0.0
2015-Feb-17 15:33N 29°43' W 095°15'0 0.0
2015-Feb-17 14:33N 29°43' W 095°15'0 0.0
2015-Feb-17 13:33N 29°43' W 095°15'5 4.6
2015-Feb-17 12:33N 29°45' W 095°10'5 5.2
2015-Feb-17 11:33N 29°47' W 095°05'0 0.0
2015-Feb-17 10:33N 29°47' W 095°05'0 0.0
2015-Feb-17 09:33N 29°47' W 095°05'0 0.0
2015-Feb-17 08:33N 29°47' W 095°05'0 0.0
2015-Feb-17 07:34N 29°47' W 095°05'0 0.0
2015-Feb-17 06:33N 29°47' W 095°05'0 0.0
2015-Feb-17 05:33N 29°47' W 095°05'0 0.0
2015-Feb-17 04:33N 29°47' W 095°05'0 0.0
2015-Feb-17 03:33N 29°47' W 095°05'0 0.0
2015-Feb-17 02:33N 29°47' W 095°05'0 0.0
2015-Feb-17 01:33N 29°47' W 095°05'2 2.0
2015-Feb-17 00:33N 29°45' W 095°06'5 5.4
2015-Feb-16 23:34N 29°44' W 095°12'0 0.3
2015-Feb-16 22:33N 29°45' W 095°12'0 0.0
2015-Feb-16 21:33N 29°45' W 095°12'0 0.0
2015-Feb-16 20:33N 29°45' W 095°12'0 0.0
2015-Feb-16 19:33N 29°45' W 095°12'0 0.0
2015-Feb-16 18:33N 29°45' W 095°12'0 0.0
2015-Feb-16 17:33N 29°45' W 095°12'0 0.1
2015-Feb-16 16:33N 29°45' W 095°12'0 0.1
2015-Feb-16 15:33N 29°45' W 095°12'0 0.0
2015-Feb-16 14:33N 29°45' W 095°12'0 0.0
2015-Feb-16 13:33N 29°45' W 095°12'0 0.0
2015-Feb-16 12:33N 29°45' W 095°12'0 0.0
2015-Feb-16 11:33N 29°45' W 095°12'0 0.0
2015-Feb-16 10:33N 29°45' W 095°12'0 0.0
2015-Feb-16 09:31N 29°45' W 095°12'0 0.0
2015-Feb-16 08:33N 29°45' W 095°12'0 0.0
2015-Feb-16 07:33N 29°45' W 095°12'0 0.0
2015-Feb-16 06:33N 29°45' W 095°12'0 0.0
2015-Feb-16 05:33N 29°45' W 095°12'0 0.0
2015-Feb-16 04:33N 29°45' W 095°12'0 0.0
2015-Feb-16 03:33N 29°45' W 095°12'0 0.0
2015-Feb-16 02:33N 29°45' W 095°12'0 0.0
2015-Feb-16 01:33N 29°45' W 095°12'0 0.0
2015-Feb-16 00:33N 29°45' W 095°12'0 0.0
2015-Feb-15 23:33N 29°45' W 095°12'2 2.1
2015-Feb-15 22:33N 29°44' W 095°09'4 2.0
2015-Feb-15 20:33N 29°46' W 095°05'0 0.0
2015-Feb-15 19:33N 29°46' W 095°05'2 1.6
2015-Feb-15 18:30N 29°45' W 095°07'1 0.6
2015-Feb-15 16:33N 29°45' W 095°06'1 0.5
2015-Feb-15 15:33N 29°46' W 095°05'0 0.0
2015-Feb-15 14:30N 29°46' W 095°05'0 0.0
2015-Feb-15 13:33N 29°46' W 095°05'0 0.0
2015-Feb-15 12:32N 29°46' W 095°05'0 0.0
2015-Feb-15 11:33N 29°46' W 095°05'0 0.0
2015-Feb-15 10:33N 29°46' W 095°05'0 0.0
2015-Feb-15 09:33N 29°46' W 095°05'0 0.0
2015-Feb-15 08:32N 29°46' W 095°05'0 0.0
2015-Feb-15 07:33N 29°46' W 095°05'0 0.0
2015-Feb-15 06:33N 29°46' W 095°05'0 0.0
2015-Feb-15 05:30N 29°46' W 095°05'0 0.0
2015-Feb-15 04:33N 29°46' W 095°05'0 0.0
2015-Feb-15 03:33N 29°46' W 095°05'0 0.0
2015-Feb-15 02:33N 29°46' W 095°05'0 0.0
2015-Feb-15 01:33N 29°46' W 095°05'0 0.0
2015-Feb-15 00:33N 29°46' W 095°05'0 0.0
2015-Feb-14 23:33N 29°46' W 095°05'0 0.0
2015-Feb-14 22:33N 29°46' W 095°05'0 0.0
2015-Feb-14 21:33N 29°46' W 095°05'0 0.0
2015-Feb-14 20:33N 29°46' W 095°05'0 0.0
2015-Feb-14 19:33N 29°46' W 095°05'0 0.0
2015-Feb-14 18:33N 29°46' W 095°05'0 0.0
2015-Feb-14 17:33N 29°46' W 095°05'0 0.0
2015-Feb-14 16:33N 29°46' W 095°05'0 0.0
2015-Feb-14 15:33N 29°46' W 095°05'0 0.0
2015-Feb-14 14:33N 29°46' W 095°05'0 0.0
2015-Feb-14 13:32N 29°46' W 095°05'0 0.0
2015-Feb-14 12:31N 29°46' W 095°05'0 0.0
2015-Feb-14 11:30N 29°46' W 095°05'0 0.0
2015-Feb-14 10:31N 29°46' W 095°05'0 0.0
2015-Feb-14 09:33N 29°46' W 095°05'0 0.0
2015-Feb-14 08:33N 29°46' W 095°05'0 0.0
2015-Feb-14 07:33N 29°46' W 095°05'0 0.0
2015-Feb-14 06:33N 29°46' W 095°05'0 0.0
2015-Feb-14 05:33N 29°46' W 095°05'0 0.0
2015-Feb-14 04:34N 29°46' W 095°05'0 0.0
2015-Feb-14 03:33N 29°46' W 095°05'0 0.0
2015-Feb-14 02:33N 29°46' W 095°05'0 0.0
2015-Feb-14 01:33N 29°46' W 095°05'0 0.0
2015-Feb-14 00:33N 29°46' W 095°05'0 0.0
2015-Feb-13 23:33N 29°46' W 095°05'0 0.0
2015-Feb-13 22:33N 29°46' W 095°05'0 0.0
2015-Feb-13 21:33N 29°46' W 095°05'0 0.0
2015-Feb-13 20:33N 29°46' W 095°05'0 0.0
2015-Feb-13 19:33N 29°46' W 095°05'0 0.0
2015-Feb-13 18:33N 29°46' W 095°05'0 0.2
2015-Feb-13 17:33N 29°46' W 095°05'3 3.0
2015-Feb-13 16:33N 29°44' W 095°08'3 0.3
2015-Feb-13 04:14N 29°46' W 095°05'0 0.0
2015-Feb-13 03:34N 29°46' W 095°05'1 0.9
2015-Feb-13 02:33N 29°45' W 095°06'1 0.7
2015-Feb-13 01:33N 29°46' W 095°06'0 0.0
2015-Feb-13 00:33N 29°46' W 095°06'0 0.1
2015-Feb-12 21:18N 29°46' W 095°07'0 0.0
2015-Feb-12 20:33N 29°46' W 095°07'0 0.0
2015-Feb-12 19:33N 29°46' W 095°07'0 0.0
2015-Feb-12 18:34N 29°46' W 095°07'0 0.0
2015-Feb-12 17:34N 29°46' W 095°07'2 1.9
2015-Feb-12 16:33N 29°44' W 095°08'1 1.0
2015-Feb-12 15:33N 29°45' W 095°06'0 0.0
2015-Feb-12 14:33N 29°45' W 095°07'2 1.7
2015-Feb-12 13:34N 29°46' W 095°05'0 0.0
2015-Feb-12 12:34N 29°46' W 095°05'0 0.0
2015-Feb-12 11:33N 29°46' W 095°05'0 0.0
2015-Feb-12 10:34N 29°46' W 095°05'0 0.0
2015-Feb-12 09:34N 29°46' W 095°05'0 0.0
2015-Feb-12 08:34N 29°46' W 095°05'0 0.0
2015-Feb-12 07:33N 29°46' W 095°05'0 0.0
2015-Feb-12 06:33N 29°46' W 095°05'0 0.0
2015-Feb-12 05:33N 29°46' W 095°05'0 0.0
2015-Feb-12 04:34N 29°46' W 095°05'0 0.0
2015-Feb-12 03:33N 29°46' W 095°05'0 0.0
2015-Feb-12 02:34N 29°46' W 095°05'0 0.0
2015-Feb-12 01:33N 29°46' W 095°05'0 0.0
2015-Feb-12 00:33N 29°46' W 095°05'0 0.0
2015-Feb-11 23:34N 29°46' W 095°05'0 0.0
2015-Feb-11 22:33N 29°46' W 095°05'0 0.0
2015-Feb-11 21:34N 29°46' W 095°05'0 0.0
2015-Feb-11 20:33N 29°46' W 095°05'0 0.0
2015-Feb-11 19:34N 29°46' W 095°05'0 0.0
2015-Feb-11 18:34N 29°46' W 095°05'0 0.0
2015-Feb-11 17:33N 29°46' W 095°05'0 0.0
2015-Feb-11 16:34N 29°46' W 095°05'1 0.9
2015-Feb-11 15:32N 29°47' W 095°05'0 0.1
2015-Feb-11 14:33N 29°47' W 095°05'0 0.0
2015-Feb-11 13:33N 29°47' W 095°05'0 0.0
2015-Feb-11 12:30N 29°47' W 095°05'0 0.0
2015-Feb-11 11:34N 29°47' W 095°05'0 0.0
2015-Feb-11 10:28N 29°47' W 095°05'0 0.0
2015-Feb-11 09:07N 29°47' W 095°05'0 0.0
2015-Feb-11 08:32N 29°47' W 095°05'0 0.0
2015-Feb-11 07:06N 29°47' W 095°05'0 0.0
2015-Feb-11 06:22N 29°47' W 095°05'0 0.0
2015-Feb-11 05:33N 29°47' W 095°05'0 0.0
2015-Feb-11 04:32N 29°47' W 095°05'0 0.0
2015-Feb-11 02:32N 29°47' W 095°05'0 0.0
2015-Feb-11 01:33N 29°47' W 095°05'0 0.0
2015-Feb-11 00:33N 29°47' W 095°05'0 0.0
2015-Feb-10 23:34N 29°47' W 095°05'0 0.0
2015-Feb-10 22:33N 29°47' W 095°05'0 0.1
2015-Feb-10 21:33N 29°47' W 095°05'0 0.4
2015-Feb-10 20:34N 29°46' W 095°05'2 1.8
2015-Feb-10 19:33N 29°46' W 095°07'0 0.0
2015-Feb-10 18:34N 29°46' W 095°07'  

Dump ship's entire track history